Hopper, Arkansas
Current Conditions -  °F | °C
As of 8:53 AM on Monday 22 Dec 2014 (Local Time) from KMWT Reporting Station
Haze Haze  
Wind Chill: 50°   Ceiling: 600
Heat Index: 50°   Visibility: 5mi
Dew Point: 48°   Wind: 3mph
Humidity: 93%   Direction: NA
Pressure: 29.65"   Gusts: NA
Location:  34.4166°N, 93.6435°W
Report Text: KMWT 221453Z AUTO VRB03KT 5SM BR OVC006 10/09 A2965 RMK AO2 RAB19E31 SLP041 P0000 60000 T01000089 56012
Loading
Personal Weather Stations






























Interactive Weather Map New forecast layout! Learn more

10-Day Weather Forecast

Advertisements
Track Severe Weather on mobile